createdAt,value
2023-04-25T04:26:08.371Z,100.00
2023-04-25T04:30:12.095Z,100.00
2023-04-25T04:34:14.907Z,99.58
2023-04-25T04:38:18.019Z,100.00
2023-04-25T04:42:20.745Z,100.00
2023-04-25T04:46:25.983Z,100.00
2023-04-25T04:50:29.490Z,100.00
2023-04-25T04:54:33.165Z,100.00
2023-04-25T04:58:37.896Z,100.00
2023-04-25T05:02:41.459Z,100.00
2023-04-25T05:06:48.922Z,100.00
2023-04-25T05:10:52.391Z,100.00
2023-04-25T05:14:55.488Z,100.00
2023-04-25T05:19:03.298Z,100.00
2023-04-25T05:23:06.268Z,100.00
2023-04-25T05:27:09.424Z,100.00
2023-04-25T05:31:12.688Z,100.00
2023-04-25T05:35:16.143Z,100.00
2023-04-25T05:39:19.795Z,100.00
2023-04-25T05:43:24.150Z,100.00
2023-04-25T05:47:26.931Z,100.00
2023-04-25T05:51:30.320Z,100.00
2023-04-25T05:55:34.586Z,100.00
2023-04-25T05:59:39.676Z,100.00
2023-04-25T06:04:04.771Z,100.00
2023-04-25T06:08:12.080Z,100.00
2023-04-25T06:12:30.827Z,100.00
2023-04-25T06:16:36.284Z,100.00
2023-04-25T06:20:39.027Z,100.00
2023-04-25T06:24:42.366Z,100.00
2023-04-25T06:28:45.534Z,100.00
2023-04-25T06:32:48.961Z,100.00
2023-04-25T06:36:53.026Z,100.00
2023-04-25T06:40:57.099Z,100.00
2023-04-25T06:45:00.636Z,100.00
2023-04-25T06:49:05.015Z,100.00
2023-04-25T06:53:10.474Z,100.00
2023-04-25T06:57:14.526Z,100.00
2023-04-25T07:01:17.613Z,100.00
2023-04-25T07:05:20.771Z,100.00
2023-04-25T07:09:23.714Z,100.00
2023-04-25T07:13:27.525Z,100.00
2023-04-25T07:17:31.612Z,100.00
2023-04-25T07:21:35.263Z,100.00
2023-04-25T07:25:38.366Z,100.00
2023-04-25T07:29:42.221Z,100.00
2023-04-25T07:33:52.137Z,100.00
2023-04-25T07:38:23.412Z,100.00
2023-04-25T07:42:30.327Z,100.00
2023-04-25T07:46:43.477Z,100.00
2023-04-25T07:50:49.279Z,100.00
2023-04-25T07:54:54.105Z,100.00
2023-04-25T07:58:58.915Z,100.00
2023-04-25T08:03:02.850Z,100.00
2023-04-25T08:07:06.258Z,100.00
2023-04-25T08:11:11.768Z,100.00
2023-04-25T08:15:14.962Z,100.00
2023-04-25T08:19:18.788Z,100.00
2023-04-25T08:23:22.207Z,97.87
2023-04-25T08:27:26.362Z,100.00
2023-04-25T08:31:29.561Z,99.04
2023-04-25T08:35:34.349Z,97.10
2023-04-25T08:40:04.898Z,99.60
2023-04-25T08:44:27.896Z,92.21
2023-04-25T08:48:41.766Z,90.84
2023-04-25T08:52:48.617Z,91.74
2023-04-25T08:56:57.012Z,86.99
2023-04-25T09:01:05.343Z,86.69
2023-04-25T09:05:21.486Z,81.06
2023-04-25T09:09:33.390Z,85.75
2023-04-25T09:13:37.197Z,79.53
2023-04-25T09:17:45.561Z,79.63
2023-04-25T09:21:58.501Z,80.12
2023-04-25T09:26:05.562Z,78.41
2023-04-25T09:30:12.114Z,80.54
2023-04-25T09:34:18.659Z,77.49
2023-04-25T09:38:27.158Z,77.75
2023-04-25T09:42:35.895Z,82.39
2023-04-25T09:47:00.847Z,76.60
2023-04-25T09:51:33.259Z,72.63
2023-04-25T09:55:41.875Z,74.35
2023-04-25T10:00:12.188Z,71.92
2023-04-25T10:04:30.316Z,71.10
2023-04-25T10:08:50.111Z,74.39
2023-04-25T10:12:56.824Z,70.64
2023-04-25T10:17:27.053Z,70.52
2023-04-25T10:22:17.197Z,70.27
2023-04-25T10:26:47.991Z,69.09
2023-04-25T10:31:09.869Z,70.27
2023-04-25T10:35:39.346Z,69.25
2023-04-25T10:39:46.040Z,75.18
2023-04-25T10:44:05.638Z,72.37
2023-04-25T10:48:30.701Z,73.96
2023-04-25T10:52:38.410Z,77.10
2023-04-25T10:56:47.065Z,76.28
2023-04-25T11:00:57.628Z,75.31
2023-04-25T11:05:01.774Z,75.44
2023-04-25T11:09:12.029Z,77.71
2023-04-25T11:13:15.695Z,77.74
2023-04-25T11:17:19.889Z,76.97
2023-04-25T11:21:23.910Z,74.45
2023-04-25T11:25:31.504Z,74.44
2023-04-25T11:29:35.882Z,73.64
2023-04-25T11:33:42.478Z,70.95
2023-04-25T11:37:48.038Z,68.90
2023-04-25T11:41:52.211Z,71.24
2023-04-25T11:45:57.403Z,63.84
2023-04-25T11:50:04.083Z,66.70
2023-04-25T11:54:07.150Z,66.67
2023-04-25T11:58:20.190Z,68.75
2023-04-25T12:02:38.004Z,65.90
2023-04-25T12:06:56.437Z,61.86
2023-04-25T12:11:14.216Z,59.64
2023-04-25T12:15:27.972Z,61.05
2023-04-25T12:19:35.939Z,62.94
2023-04-25T12:23:40.508Z,63.89
2023-04-25T12:27:43.327Z,61.37
2023-04-25T12:31:46.774Z,61.79
2023-04-25T12:35:50.180Z,64.90
2023-04-25T12:39:53.781Z,60.67
2023-04-25T12:43:56.645Z,61.97
2023-04-25T12:48:03.424Z,62.74
2023-04-25T12:52:08.990Z,62.44
2023-04-25T12:56:12.448Z,58.07
2023-04-25T13:00:16.367Z,58.32
2023-04-25T13:04:22.479Z,56.34
2023-04-25T13:08:25.693Z,50.52
2023-04-25T13:12:33.442Z,47.85
2023-04-25T13:16:36.794Z,46.04
2023-04-25T13:20:40.472Z,44.58
2023-04-25T13:24:43.453Z,42.77
2023-04-25T13:28:48.858Z,45.18
2023-04-25T13:32:52.692Z,42.47
2023-04-25T13:36:57.253Z,48.32
2023-04-25T13:41:01.169Z,49.17
2023-04-25T13:45:08.905Z,49.70
2023-04-25T13:49:13.777Z,46.54
2023-04-25T13:53:19.134Z,44.39
2023-04-25T13:57:24.996Z,43.87
2023-04-25T14:01:29.209Z,38.80
2023-04-25T14:05:32.731Z,40.68
2023-04-25T14:09:35.639Z,37.92
2023-04-25T14:13:38.674Z,38.04
2023-04-25T14:17:41.522Z,38.77
2023-04-25T14:21:44.842Z,37.65
2023-04-25T14:25:47.749Z,37.72
2023-04-25T14:29:50.771Z,38.31
2023-04-25T14:33:53.632Z,36.30
2023-04-25T14:37:57.925Z,37.38
2023-04-25T14:42:01.849Z,38.13
2023-04-25T14:46:06.183Z,40.09
2023-04-25T14:50:09.854Z,41.29
2023-04-25T14:54:13.271Z,42.96
2023-04-25T14:58:16.880Z,42.04
2023-04-25T15:02:19.975Z,41.03
2023-04-25T15:06:22.801Z,45.38
2023-04-25T15:10:25.852Z,42.95
2023-04-25T15:14:29.119Z,42.73
2023-04-25T15:18:32.514Z,42.97
2023-04-25T15:22:35.295Z,41.65
